sensor_id;sensor_type;location;lat;lon;timestamp;P1;durP1;ratioP1;P2;durP2;ratioP2
16994;SDS011;8614;48.522;9.206;2022-09-13T00:00:40;8.00;;;7.40;;
16994;SDS011;8614;48.522;9.206;2022-09-13T00:03:08;7.83;;;7.23;;
16994;SDS011;8614;48.522;9.206;2022-09-13T00:05:36;8.20;;;7.60;;
16994;SDS011;8614;48.522;9.206;2022-09-13T00:08:05;8.20;;;7.70;;
16994;SDS011;8614;48.522;9.206;2022-09-13T00:10:33;8.10;;;7.50;;
16994;SDS011;8614;48.522;9.206;2022-09-13T00:13:02;8.20;;;7.60;;
16994;SDS011;8614;48.522;9.206;2022-09-13T00:15:30;8.33;;;7.73;;
16994;SDS011;8614;48.522;9.206;2022-09-13T00:17:57;8.23;;;7.53;;
16994;SDS011;8614;48.522;9.206;2022-09-13T00:20:24;8.03;;;7.53;;
16994;SDS011;8614;48.522;9.206;2022-09-13T00:22:51;7.67;;;7.17;;
16994;SDS011;8614;48.522;9.206;2022-09-13T00:25:19;7.40;;;6.90;;
16994;SDS011;8614;48.522;9.206;2022-09-13T00:27:46;8.10;;;7.60;;
16994;SDS011;8614;48.522;9.206;2022-09-13T00:30:13;8.07;;;7.47;;
16994;SDS011;8614;48.522;9.206;2022-09-13T00:32:40;8.13;;;7.63;;
16994;SDS011;8614;48.522;9.206;2022-09-13T00:35:07;8.60;;;8.00;;
16994;SDS011;8614;48.522;9.206;2022-09-13T00:37:34;8.90;;;8.30;;
16994;SDS011;8614;48.522;9.206;2022-09-13T00:40:01;8.50;;;7.90;;
16994;SDS011;8614;48.522;9.206;2022-09-13T00:42:30;8.50;;;7.80;;
16994;SDS011;8614;48.522;9.206;2022-09-13T00:44:58;8.40;;;7.80;;
16994;SDS011;8614;48.522;9.206;2022-09-13T00:47:28;8.53;;;7.93;;
16994;SDS011;8614;48.522;9.206;2022-09-13T00:50:02;8.13;;;7.53;;
16994;SDS011;8614;48.522;9.206;2022-09-13T00:52:34;8.67;;;7.90;;
16994;SDS011;8614;48.522;9.206;2022-09-13T00:55:06;8.80;;;8.20;;
16994;SDS011;8614;48.522;9.206;2022-09-13T00:57:38;8.70;;;8.10;;
16994;SDS011;8614;48.522;9.206;2022-09-13T01:00:09;8.53;;;7.97;;
16994;SDS011;8614;48.522;9.206;2022-09-13T01:02:39;8.50;;;7.90;;
16994;SDS011;8614;48.522;9.206;2022-09-13T01:05:08;8.47;;;7.87;;
16994;SDS011;8614;48.522;9.206;2022-09-13T01:07:37;8.20;;;7.60;;
16994;SDS011;8614;48.522;9.206;2022-09-13T01:10:04;7.83;;;7.30;;
16994;SDS011;8614;48.522;9.206;2022-09-13T01:12:33;8.17;;;7.57;;
16994;SDS011;8614;48.522;9.206;2022-09-13T01:15:09;8.20;;;7.70;;
16994;SDS011;8614;48.522;9.206;2022-09-13T01:17:36;8.13;;;7.63;;
16994;SDS011;8614;48.522;9.206;2022-09-13T01:20:05;8.40;;;7.77;;
16994;SDS011;8614;48.522;9.206;2022-09-13T01:22:43;8.87;;;8.17;;
16994;SDS011;8614;48.522;9.206;2022-09-13T01:28:15;8.13;;;7.53;;
16994;SDS011;8614;48.522;9.206;2022-09-13T01:30:55;8.40;;;7.80;;
16994;SDS011;8614;48.522;9.206;2022-09-13T01:33:33;7.97;;;7.47;;
16994;SDS011;8614;48.522;9.206;2022-09-13T01:36:15;7.83;;;7.33;;
16994;SDS011;8614;48.522;9.206;2022-09-13T01:39:04;8.43;;;7.73;;
16994;SDS011;8614;48.522;9.206;2022-09-13T01:41:46;9.70;;;7.90;;
16994;SDS011;8614;48.522;9.206;2022-09-13T01:44:28;9.27;;;8.47;;
16994;SDS011;8614;48.522;9.206;2022-09-13T01:47:06;8.90;;;8.23;;
16994;SDS011;8614;48.522;9.206;2022-09-13T01:49:42;8.67;;;8.00;;
16994;SDS011;8614;48.522;9.206;2022-09-13T01:52:14;8.73;;;8.03;;
16994;SDS011;8614;48.522;9.206;2022-09-13T01:54:47;8.50;;;7.90;;
16994;SDS011;8614;48.522;9.206;2022-09-13T01:57:19;8.50;;;8.00;;
16994;SDS011;8614;48.522;9.206;2022-09-13T01:59:53;8.83;;;8.13;;
16994;SDS011;8614;48.522;9.206;2022-09-13T02:02:26;8.83;;;8.23;;
16994;SDS011;8614;48.522;9.206;2022-09-13T02:04:57;8.30;;;7.70;;
16994;SDS011;8614;48.522;9.206;2022-09-13T02:07:30;7.80;;;7.30;;
16994;SDS011;8614;48.522;9.206;2022-09-13T02:10:02;7.80;;;7.30;;
16994;SDS011;8614;48.522;9.206;2022-09-13T02:12:33;7.97;;;7.47;;
16994;SDS011;8614;48.522;9.206;2022-09-13T02:15:03;8.60;;;7.97;;
16994;SDS011;8614;48.522;9.206;2022-09-13T02:17:35;8.43;;;7.73;;
16994;SDS011;8614;48.522;9.206;2022-09-13T02:20:05;8.50;;;7.90;;
16994;SDS011;8614;48.522;9.206;2022-09-13T02:22:38;8.27;;;7.77;;
16994;SDS011;8614;48.522;9.206;2022-09-13T02:25:11;8.37;;;7.77;;
16994;SDS011;8614;48.522;9.206;2022-09-13T02:27:43;8.47;;;7.87;;
16994;SDS011;8614;48.522;9.206;2022-09-13T02:30:13;8.60;;;8.00;;
16994;SDS011;8614;48.522;9.206;2022-09-13T02:32:43;8.80;;;8.10;;
16994;SDS011;8614;48.522;9.206;2022-09-13T02:35:15;8.50;;;7.90;;
16994;SDS011;8614;48.522;9.206;2022-09-13T02:37:47;8.73;;;8.07;;
16994;SDS011;8614;48.522;9.206;2022-09-13T02:40:21;8.67;;;7.97;;
16994;SDS011;8614;48.522;9.206;2022-09-13T02:42:54;8.30;;;7.70;;
16994;SDS011;8614;48.522;9.206;2022-09-13T02:45:27;8.30;;;7.60;;
16994;SDS011;8614;48.522;9.206;2022-09-13T02:48:02;8.97;;;8.33;;
16994;SDS011;8614;48.522;9.206;2022-09-13T02:50:36;9.20;;;8.60;;
16994;SDS011;8614;48.522;9.206;2022-09-13T02:53:13;8.30;;;7.80;;
16994;SDS011;8614;48.522;9.206;2022-09-13T02:55:52;8.03;;;7.53;;
16994;SDS011;8614;48.522;9.206;2022-09-13T02:58:26;8.33;;;7.83;;
16994;SDS011;8614;48.522;9.206;2022-09-13T03:00:59;8.00;;;7.50;;
16994;SDS011;8614;48.522;9.206;2022-09-13T03:03:28;7.80;;;7.30;;
16994;SDS011;8614;48.522;9.206;2022-09-13T03:05:55;8.17;;;7.57;;
16994;SDS011;8614;48.522;9.206;2022-09-13T03:08:22;8.67;;;8.17;;
16994;SDS011;8614;48.522;9.206;2022-09-13T03:10:51;8.57;;;8.07;;
16994;SDS011;8614;48.522;9.206;2022-09-13T03:13:31;8.37;;;7.80;;
16994;SDS011;8614;48.522;9.206;2022-09-13T03:16:09;8.93;;;8.37;;
16994;SDS011;8614;48.522;9.206;2022-09-13T03:18:50;8.80;;;8.30;;
16994;SDS011;8614;48.522;9.206;2022-09-13T03:21:25;8.80;;;8.30;;
16994;SDS011;8614;48.522;9.206;2022-09-13T03:24:13;8.80;;;8.10;;
16994;SDS011;8614;48.522;9.206;2022-09-13T03:26:44;8.40;;;7.80;;
16994;SDS011;8614;48.522;9.206;2022-09-13T03:29:25;8.90;;;8.30;;
16994;SDS011;8614;48.522;9.206;2022-09-13T03:31:59;8.50;;;8.00;;
16994;SDS011;8614;48.522;9.206;2022-09-13T03:34:34;9.60;;;8.23;;
16994;SDS011;8614;48.522;9.206;2022-09-13T03:37:10;9.13;;;8.50;;
16994;SDS011;8614;48.522;9.206;2022-09-13T03:39:42;8.45;;;7.93;;
16994;SDS011;8614;48.522;9.206;2022-09-13T03:42:15;8.90;;;8.30;;
16994;SDS011;8614;48.522;9.206;2022-09-13T03:44:47;9.07;;;8.47;;
16994;SDS011;8614;48.522;9.206;2022-09-13T03:47:16;8.30;;;7.80;;
16994;SDS011;8614;48.522;9.206;2022-09-13T03:49:46;8.80;;;8.20;;
16994;SDS011;8614;48.522;9.206;2022-09-13T03:52:15;8.53;;;8.00;;
16994;SDS011;8614;48.522;9.206;2022-09-13T03:54:42;9.07;;;8.47;;
16994;SDS011;8614;48.522;9.206;2022-09-13T03:57:09;9.50;;;8.90;;
16994;SDS011;8614;48.522;9.206;2022-09-13T03:59:38;9.60;;;9.00;;
16994;SDS011;8614;48.522;9.206;2022-09-13T04:02:09;9.20;;;8.60;;
16994;SDS011;8614;48.522;9.206;2022-09-13T04:04:37;9.50;;;8.90;;
16994;SDS011;8614;48.522;9.206;2022-09-13T04:07:05;9.60;;;8.90;;
16994;SDS011;8614;48.522;9.206;2022-09-13T04:09:33;8.93;;;8.43;;
16994;SDS011;8614;48.522;9.206;2022-09-13T04:12:00;9.10;;;8.50;;
16994;SDS011;8614;48.522;9.206;2022-09-13T04:14:27;9.17;;;8.57;;
16994;SDS011;8614;48.522;9.206;2022-09-13T04:16:54;9.60;;;8.90;;
16994;SDS011;8614;48.522;9.206;2022-09-13T04:19:21;10.23;;;9.43;;
16994;SDS011;8614;48.522;9.206;2022-09-13T04:21:49;9.60;;;8.90;;
16994;SDS011;8614;48.522;9.206;2022-09-13T04:24:19;9.43;;;8.83;;
16994;SDS011;8614;48.522;9.206;2022-09-13T04:26:47;10.00;;;9.30;;
16994;SDS011;8614;48.522;9.206;2022-09-13T04:29:15;10.07;;;9.37;;
16994;SDS011;8614;48.522;9.206;2022-09-13T04:31:42;12.97;;;10.33;;
16994;SDS011;8614;48.522;9.206;2022-09-13T04:34:09;10.47;;;9.67;;
16994;SDS011;8614;48.522;9.206;2022-09-13T04:36:36;11.10;;;10.23;;
16994;SDS011;8614;48.522;9.206;2022-09-13T04:39:03;10.53;;;9.63;;
16994;SDS011;8614;48.522;9.206;2022-09-13T04:41:31;10.67;;;9.97;;
16994;SDS011;8614;48.522;9.206;2022-09-13T04:43:58;11.23;;;10.40;;
16994;SDS011;8614;48.522;9.206;2022-09-13T04:46:25;10.93;;;10.03;;
16994;SDS011;8614;48.522;9.206;2022-09-13T04:48:52;10.30;;;9.60;;
16994;SDS011;8614;48.522;9.206;2022-09-13T04:51:19;11.20;;;10.30;;
16994;SDS011;8614;48.522;9.206;2022-09-13T04:53:50;10.37;;;9.67;;
16994;SDS011;8614;48.522;9.206;2022-09-13T04:56:17;10.53;;;9.83;;
16994;SDS011;8614;48.522;9.206;2022-09-13T04:58:46;10.40;;;9.60;;
16994;SDS011;8614;48.522;9.206;2022-09-13T05:01:13;11.17;;;10.17;;
16994;SDS011;8614;48.522;9.206;2022-09-13T05:03:40;10.17;;;9.57;;
16994;SDS011;8614;48.522;9.206;2022-09-13T05:06:07;10.20;;;9.33;;
16994;SDS011;8614;48.522;9.206;2022-09-13T05:08:35;10.17;;;9.53;;
16994;SDS011;8614;48.522;9.206;2022-09-13T05:11:02;10.40;;;9.70;;
16994;SDS011;8614;48.522;9.206;2022-09-13T05:13:30;9.90;;;9.20;;
16994;SDS011;8614;48.522;9.206;2022-09-13T05:15:59;10.87;;;9.87;;
16994;SDS011;8614;48.522;9.206;2022-09-13T05:18:28;10.50;;;9.70;;
16994;SDS011;8614;48.522;9.206;2022-09-13T05:20:56;10.50;;;9.70;;
16994;SDS011;8614;48.522;9.206;2022-09-13T05:23:24;10.73;;;9.93;;
16994;SDS011;8614;48.522;9.206;2022-09-13T05:25:52;10.50;;;9.80;;
16994;SDS011;8614;48.522;9.206;2022-09-13T05:28:19;10.50;;;9.80;;
16994;SDS011;8614;48.522;9.206;2022-09-13T05:30:53;10.70;;;9.90;;
16994;SDS011;8614;48.522;9.206;2022-09-13T05:33:22;10.40;;;9.70;;
16994;SDS011;8614;48.522;9.206;2022-09-13T05:35:49;10.60;;;9.80;;
16994;SDS011;8614;48.522;9.206;2022-09-13T05:38:16;10.30;;;9.60;;
16994;SDS011;8614;48.522;9.206;2022-09-13T05:40:43;9.85;;;9.25;;
16994;SDS011;8614;48.522;9.206;2022-09-13T05:43:10;10.20;;;9.30;;
16994;SDS011;8614;48.522;9.206;2022-09-13T05:45:37;9.83;;;9.17;;
16994;SDS011;8614;48.522;9.206;2022-09-13T05:48:04;5.27;;;4.70;;
16994;SDS011;8614;48.522;9.206;2022-09-13T05:50:32;5.13;;;4.73;;
16994;SDS011;8614;48.522;9.206;2022-09-13T05:53:02;4.70;;;4.30;;
16994;SDS011;8614;48.522;9.206;2022-09-13T05:55:29;5.30;;;4.80;;
16994;SDS011;8614;48.522;9.206;2022-09-13T05:57:56;10.80;;;10.00;;
16994;SDS011;8614;48.522;9.206;2022-09-13T06:00:23;11.40;;;10.60;;
16994;SDS011;8614;48.522;9.206;2022-09-13T06:02:50;10.10;;;9.50;;
16994;SDS011;8614;48.522;9.206;2022-09-13T06:05:16;10.30;;;9.50;;
16994;SDS011;8614;48.522;9.206;2022-09-13T06:07:44;9.40;;;8.80;;
16994;SDS011;8614;48.522;9.206;2022-09-13T06:10:11;9.83;;;9.10;;
16994;SDS011;8614;48.522;9.206;2022-09-13T06:12:38;9.60;;;9.00;;
16994;SDS011;8614;48.522;9.206;2022-09-13T06:15:05;9.17;;;8.47;;
16994;SDS011;8614;48.522;9.206;2022-09-13T06:17:35;9.10;;;8.50;;
16994;SDS011;8614;48.522;9.206;2022-09-13T06:20:02;9.33;;;8.73;;
16994;SDS011;8614;48.522;9.206;2022-09-13T06:22:30;9.10;;;8.50;;
16994;SDS011;8614;48.522;9.206;2022-09-13T06:25:00;9.00;;;8.40;;
16994;SDS011;8614;48.522;9.206;2022-09-13T06:27:28;8.70;;;8.20;;
16994;SDS011;8614;48.522;9.206;2022-09-13T06:29:55;9.40;;;8.70;;
16994;SDS011;8614;48.522;9.206;2022-09-13T06:32:22;9.10;;;8.50;;
16994;SDS011;8614;48.522;9.206;2022-09-13T06:34:48;8.77;;;8.17;;
16994;SDS011;8614;48.522;9.206;2022-09-13T06:37:15;8.97;;;8.27;;
16994;SDS011;8614;48.522;9.206;2022-09-13T06:39:42;8.87;;;8.27;;
16994;SDS011;8614;48.522;9.206;2022-09-13T06:42:10;8.70;;;8.10;;
16994;SDS011;8614;48.522;9.206;2022-09-13T06:44:40;8.40;;;7.90;;
16994;SDS011;8614;48.522;9.206;2022-09-13T06:47:07;8.67;;;8.07;;
16994;SDS011;8614;48.522;9.206;2022-09-13T06:49:35;8.90;;;8.30;;
16994;SDS011;8614;48.522;9.206;2022-09-13T06:52:01;8.50;;;8.00;;
16994;SDS011;8614;48.522;9.206;2022-09-13T06:54:28;8.13;;;7.63;;
16994;SDS011;8614;48.522;9.206;2022-09-13T06:56:55;8.57;;;7.93;;
16994;SDS011;8614;48.522;9.206;2022-09-13T06:59:23;8.33;;;7.83;;
16994;SDS011;8614;48.522;9.206;2022-09-13T07:01:50;7.80;;;7.30;;
16994;SDS011;8614;48.522;9.206;2022-09-13T07:04:16;8.83;;;8.10;;
16994;SDS011;8614;48.522;9.206;2022-09-13T07:06:44;7.90;;;7.40;;
16994;SDS011;8614;48.522;9.206;2022-09-13T07:09:13;7.80;;;7.30;;
16994;SDS011;8614;48.522;9.206;2022-09-13T07:11:42;8.10;;;7.60;;
16994;SDS011;8614;48.522;9.206;2022-09-13T07:14:12;8.40;;;7.77;;
16994;SDS011;8614;48.522;9.206;2022-09-13T07:16:41;8.70;;;8.10;;
16994;SDS011;8614;48.522;9.206;2022-09-13T07:19:11;8.70;;;8.10;;
16994;SDS011;8614;48.522;9.206;2022-09-13T07:21:39;8.33;;;7.63;;
16994;SDS011;8614;48.522;9.206;2022-09-13T07:24:07;9.10;;;8.30;;
16994;SDS011;8614;48.522;9.206;2022-09-13T07:26:34;7.90;;;7.40;;
16994;SDS011;8614;48.522;9.206;2022-09-13T07:29:02;8.13;;;7.53;;
16994;SDS011;8614;48.522;9.206;2022-09-13T07:31:30;7.40;;;6.90;;
16994;SDS011;8614;48.522;9.206;2022-09-13T07:34:02;8.10;;;7.60;;
16994;SDS011;8614;48.522;9.206;2022-09-13T07:36:31;8.03;;;7.43;;
16994;SDS011;8614;48.522;9.206;2022-09-13T07:38:59;7.60;;;7.10;;
16994;SDS011;8614;48.522;9.206;2022-09-13T07:41:27;8.37;;;7.63;;
16994;SDS011;8614;48.522;9.206;2022-09-13T07:43:55;9.80;;;9.07;;
16994;SDS011;8614;48.522;9.206;2022-09-13T07:46:23;9.10;;;8.53;;
16994;SDS011;8614;48.522;9.206;2022-09-13T07:48:52;7.43;;;6.93;;
16994;SDS011;8614;48.522;9.206;2022-09-13T07:51:21;6.90;;;5.10;;
16994;SDS011;8614;48.522;9.206;2022-09-13T07:53:49;6.90;;;6.40;;
16994;SDS011;8614;48.522;9.206;2022-09-13T07:56:18;4.03;;;2.70;;
16994;SDS011;8614;48.522;9.206;2022-09-13T07:58:46;8.10;;;7.60;;
16994;SDS011;8614;48.522;9.206;2022-09-13T08:01:14;9.40;;;8.60;;
16994;SDS011;8614;48.522;9.206;2022-09-13T08:03:43;3.63;;;2.80;;
16994;SDS011;8614;48.522;9.206;2022-09-13T08:06:15;3.37;;;2.67;;
16994;SDS011;8614;48.522;9.206;2022-09-13T08:08:43;4.07;;;3.70;;
16994;SDS011;8614;48.522;9.206;2022-09-13T08:11:12;4.80;;;4.40;;
16994;SDS011;8614;48.522;9.206;2022-09-13T08:13:42;3.20;;;2.70;;
16994;SDS011;8614;48.522;9.206;2022-09-13T08:16:09;3.60;;;3.00;;
16994;SDS011;8614;48.522;9.206;2022-09-13T08:18:36;7.77;;;7.20;;
16994;SDS011;8614;48.522;9.206;2022-09-13T08:21:02;8.90;;;8.30;;
16994;SDS011;8614;48.522;9.206;2022-09-13T08:23:29;7.37;;;6.80;;
16994;SDS011;8614;48.522;9.206;2022-09-13T08:26:02;8.17;;;7.57;;
16994;SDS011;8614;48.522;9.206;2022-09-13T08:28:30;8.70;;;8.00;;
16994;SDS011;8614;48.522;9.206;2022-09-13T08:31:02;9.30;;;8.40;;
16994;SDS011;8614;48.522;9.206;2022-09-13T08:33:30;8.97;;;8.37;;
16994;SDS011;8614;48.522;9.206;2022-09-13T08:35:57;8.13;;;7.43;;
16994;SDS011;8614;48.522;9.206;2022-09-13T08:38:24;5.70;;;5.30;;
16994;SDS011;8614;48.522;9.206;2022-09-13T08:40:52;6.40;;;5.90;;
16994;SDS011;8614;48.522;9.206;2022-09-13T08:43:26;8.90;;;8.30;;
16994;SDS011;8614;48.522;9.206;2022-09-13T08:46:05;4.40;;;3.73;;
16994;SDS011;8614;48.522;9.206;2022-09-13T08:48:39;8.10;;;7.60;;
16994;SDS011;8614;48.522;9.206;2022-09-13T08:51:13;8.20;;;7.50;;
16994;SDS011;8614;48.522;9.206;2022-09-13T08:53:57;8.60;;;8.00;;
16994;SDS011;8614;48.522;9.206;2022-09-13T08:56:26;8.60;;;8.00;;
16994;SDS011;8614;48.522;9.206;2022-09-13T08:59:15;8.70;;;8.10;;
16994;SDS011;8614;48.522;9.206;2022-09-13T09:02:00;8.57;;;7.77;;
16994;SDS011;8614;48.522;9.206;2022-09-13T09:04:48;8.20;;;7.60;;
16994;SDS011;8614;48.522;9.206;2022-09-13T09:07:21;7.30;;;6.80;;
16994;SDS011;8614;48.522;9.206;2022-09-13T09:09:52;7.63;;;7.13;;
16994;SDS011;8614;48.522;9.206;2022-09-13T09:12:25;5.67;;;5.27;;
16994;SDS011;8614;48.522;9.206;2022-09-13T09:15:00;4.83;;;2.87;;
16994;SDS011;8614;48.522;9.206;2022-09-13T09:17:31;6.33;;;5.83;;
16994;SDS011;8614;48.522;9.206;2022-09-13T09:20:22;3.77;;;2.70;;
16994;SDS011;8614;48.522;9.206;2022-09-13T09:22:52;2.70;;;2.50;;
16994;SDS011;8614;48.522;9.206;2022-09-13T09:25:20;4.17;;;2.87;;
16994;SDS011;8614;48.522;9.206;2022-09-13T09:27:50;6.30;;;5.90;;
16994;SDS011;8614;48.522;9.206;2022-09-13T09:30:19;8.20;;;7.60;;
16994;SDS011;8614;48.522;9.206;2022-09-13T09:32:48;8.13;;;7.50;;
16994;SDS011;8614;48.522;9.206;2022-09-13T09:35:28;7.70;;;7.30;;
16994;SDS011;8614;48.522;9.206;2022-09-13T09:38:13;7.47;;;6.87;;
16994;SDS011;8614;48.522;9.206;2022-09-13T09:40:49;7.60;;;7.00;;
16994;SDS011;8614;48.522;9.206;2022-09-13T09:43:18;8.10;;;6.73;;
16994;SDS011;8614;48.522;9.206;2022-09-13T09:45:59;8.17;;;7.67;;
16994;SDS011;8614;48.522;9.206;2022-09-13T09:48:29;7.83;;;7.13;;
16994;SDS011;8614;48.522;9.206;2022-09-13T09:51:02;7.20;;;6.77;;
16994;SDS011;8614;48.522;9.206;2022-09-13T09:53:34;8.77;;;8.17;;
16994;SDS011;8614;48.522;9.206;2022-09-13T09:56:12;2.43;;;2.33;;
16994;SDS011;8614;48.522;9.206;2022-09-13T09:58:45;2.63;;;2.43;;
16994;SDS011;8614;48.522;9.206;2022-09-13T10:01:18;3.63;;;3.33;;
16994;SDS011;8614;48.522;9.206;2022-09-13T10:03:52;7.60;;;7.10;;
16994;SDS011;8614;48.522;9.206;2022-09-13T10:06:26;6.90;;;6.50;;
16994;SDS011;8614;48.522;9.206;2022-09-13T10:08:59;7.50;;;6.80;;
16994;SDS011;8614;48.522;9.206;2022-09-13T10:11:39;7.20;;;6.60;;
16994;SDS011;8614;48.522;9.206;2022-09-13T10:14:26;7.20;;;6.70;;
16994;SDS011;8614;48.522;9.206;2022-09-13T10:17:03;7.10;;;6.60;;
16994;SDS011;8614;48.522;9.206;2022-09-13T10:19:32;7.13;;;6.63;;
16994;SDS011;8614;48.522;9.206;2022-09-13T10:22:02;6.00;;;5.60;;
16994;SDS011;8614;48.522;9.206;2022-09-13T10:24:31;7.23;;;6.73;;
16994;SDS011;8614;48.522;9.206;2022-09-13T10:26:58;6.23;;;5.83;;
16994;SDS011;8614;48.522;9.206;2022-09-13T10:29:28;7.13;;;6.70;;
16994;SDS011;8614;48.522;9.206;2022-09-13T10:31:57;7.23;;;6.80;;
16994;SDS011;8614;48.522;9.206;2022-09-13T10:34:29;7.17;;;6.67;;
16994;SDS011;8614;48.522;9.206;2022-09-13T10:36:59;6.50;;;6.20;;
16994;SDS011;8614;48.522;9.206;2022-09-13T10:39:30;7.30;;;6.80;;
16994;SDS011;8614;48.522;9.206;2022-09-13T10:42:01;7.10;;;6.60;;
16994;SDS011;8614;48.522;9.206;2022-09-13T10:44:31;6.53;;;6.20;;
16994;SDS011;8614;48.522;9.206;2022-09-13T10:47:00;6.47;;;6.17;;
16994;SDS011;8614;48.522;9.206;2022-09-13T10:49:38;6.97;;;6.57;;
16994;SDS011;8614;48.522;9.206;2022-09-13T10:52:23;7.20;;;6.80;;
16994;SDS011;8614;48.522;9.206;2022-09-13T10:55:14;6.90;;;6.50;;
16994;SDS011;8614;48.522;9.206;2022-09-13T10:58:12;6.80;;;6.50;;
16994;SDS011;8614;48.522;9.206;2022-09-13T11:07:00;7.00;;;6.47;;
16994;SDS011;8614;48.522;9.206;2022-09-13T11:09:40;7.10;;;6.70;;
16994;SDS011;8614;48.522;9.206;2022-09-13T11:12:13;6.50;;;6.10;;
16994;SDS011;8614;48.522;9.206;2022-09-13T11:14:48;7.57;;;6.97;;
16994;SDS011;8614;48.522;9.206;2022-09-13T11:17:30;7.07;;;6.67;;
16994;SDS011;8614;48.522;9.206;2022-09-13T11:20:11;6.67;;;6.20;;
16994;SDS011;8614;48.522;9.206;2022-09-13T11:22:57;6.90;;;6.50;;
16994;SDS011;8614;48.522;9.206;2022-09-13T11:25:40;2.00;;;1.90;;
16994;SDS011;8614;48.522;9.206;2022-09-13T11:28:25;2.20;;;2.10;;
16994;SDS011;8614;48.522;9.206;2022-09-13T11:31:03;2.57;;;2.37;;
16994;SDS011;8614;48.522;9.206;2022-09-13T11:33:43;2.20;;;2.00;;
16994;SDS011;8614;48.522;9.206;2022-09-13T11:36:27;2.00;;;1.90;;
16994;SDS011;8614;48.522;9.206;2022-09-13T11:39:11;1.90;;;1.80;;
16994;SDS011;8614;48.522;9.206;2022-09-13T11:41:47;1.90;;;1.80;;
16994;SDS011;8614;48.522;9.206;2022-09-13T11:44:32;3.70;;;3.50;;
16994;SDS011;8614;48.522;9.206;2022-09-13T11:47:19;2.10;;;2.00;;
16994;SDS011;8614;48.522;9.206;2022-09-13T11:50:02;2.43;;;2.10;;
16994;SDS011;8614;48.522;9.206;2022-09-13T11:52:46;4.57;;;4.27;;
16994;SDS011;8614;48.522;9.206;2022-09-13T11:55:24;2.10;;;2.00;;
16994;SDS011;8614;48.522;9.206;2022-09-13T11:57:54;2.10;;;2.00;;
16994;SDS011;8614;48.522;9.206;2022-09-13T12:00:24;2.13;;;2.00;;
16994;SDS011;8614;48.522;9.206;2022-09-13T12:02:59;4.50;;;4.20;;
16994;SDS011;8614;48.522;9.206;2022-09-13T12:05:32;4.60;;;4.40;;
16994;SDS011;8614;48.522;9.206;2022-09-13T12:08:03;5.07;;;4.77;;
16994;SDS011;8614;48.522;9.206;2022-09-13T12:10:41;2.80;;;2.70;;
16994;SDS011;8614;48.522;9.206;2022-09-13T12:13:15;2.20;;;2.10;;
16994;SDS011;8614;48.522;9.206;2022-09-13T12:15:46;4.67;;;4.37;;
16994;SDS011;8614;48.522;9.206;2022-09-13T12:18:18;5.17;;;4.87;;
16994;SDS011;8614;48.522;9.206;2022-09-13T12:20:49;2.40;;;2.20;;
16994;SDS011;8614;48.522;9.206;2022-09-13T12:23:19;2.23;;;2.13;;
16994;SDS011;8614;48.522;9.206;2022-09-13T12:25:53;2.30;;;2.10;;
16994;SDS011;8614;48.522;9.206;2022-09-13T12:28:25;2.17;;;1.93;;
16994;SDS011;8614;48.522;9.206;2022-09-13T12:30:55;2.00;;;1.90;;
16994;SDS011;8614;48.522;9.206;2022-09-13T12:33:25;2.13;;;1.97;;
16994;SDS011;8614;48.522;9.206;2022-09-13T12:36:03;2.00;;;1.90;;
16994;SDS011;8614;48.522;9.206;2022-09-13T12:39:00;3.57;;;3.27;;
16994;SDS011;8614;48.522;9.206;2022-09-13T12:41:53;2.93;;;2.73;;
16994;SDS011;8614;48.522;9.206;2022-09-13T12:44:40;5.03;;;4.73;;
16994;SDS011;8614;48.522;9.206;2022-09-13T12:47:24;6.10;;;5.70;;
16994;SDS011;8614;48.522;9.206;2022-09-13T12:50:12;6.50;;;6.10;;
16994;SDS011;8614;48.522;9.206;2022-09-13T12:52:49;5.90;;;5.50;;
16994;SDS011;8614;48.522;9.206;2022-09-13T12:55:28;5.53;;;5.23;;
16994;SDS011;8614;48.522;9.206;2022-09-13T12:58:19;3.53;;;3.43;;
16994;SDS011;8614;48.522;9.206;2022-09-13T13:01:05;2.63;;;2.47;;
16994;SDS011;8614;48.522;9.206;2022-09-13T13:03:35;5.17;;;4.80;;
16994;SDS011;8614;48.522;9.206;2022-09-13T13:06:12;4.73;;;4.53;;
16994;SDS011;8614;48.522;9.206;2022-09-13T13:08:52;2.20;;;2.10;;
16994;SDS011;8614;48.522;9.206;2022-09-13T13:11:22;3.07;;;2.87;;
16994;SDS011;8614;48.522;9.206;2022-09-13T13:13:53;1.80;;;1.70;;
16994;SDS011;8614;48.522;9.206;2022-09-13T13:16:24;1.90;;;1.80;;
16994;SDS011;8614;48.522;9.206;2022-09-13T13:18:53;2.57;;;2.47;;
16994;SDS011;8614;48.522;9.206;2022-09-13T13:33:20;4.87;;;4.57;;
16994;SDS011;8614;48.522;9.206;2022-09-13T13:35:51;5.70;;;5.30;;
16994;SDS011;8614;48.522;9.206;2022-09-13T13:38:38;5.60;;;5.30;;
16994;SDS011;8614;48.522;9.206;2022-09-13T13:41:07;3.13;;;2.00;;
16994;SDS011;8614;48.522;9.206;2022-09-13T13:50:18;1.70;;;1.60;;
16994;SDS011;8614;48.522;9.206;2022-09-13T13:52:55;6.10;;;5.70;;
16994;SDS011;8614;48.522;9.206;2022-09-13T13:55:41;2.83;;;2.63;;
16994;SDS011;8614;48.522;9.206;2022-09-13T13:58:25;1.50;;;1.50;;
16994;SDS011;8614;48.522;9.206;2022-09-13T14:00:55;1.50;;;1.50;;
16994;SDS011;8614;48.522;9.206;2022-09-13T14:03:28;2.97;;;2.73;;
16994;SDS011;8614;48.522;9.206;2022-09-13T14:06:07;3.87;;;3.67;;
16994;SDS011;8614;48.522;9.206;2022-09-13T14:08:45;4.17;;;3.97;;
16994;SDS011;8614;48.522;9.206;2022-09-13T14:11:26;4.70;;;4.33;;
16994;SDS011;8614;48.522;9.206;2022-09-13T14:14:09;5.30;;;4.93;;
16994;SDS011;8614;48.522;9.206;2022-09-13T14:16:55;5.70;;;5.30;;
16994;SDS011;8614;48.522;9.206;2022-09-13T14:19:38;5.67;;;5.37;;
16994;SDS011;8614;48.522;9.206;2022-09-13T14:22:13;5.77;;;5.37;;
16994;SDS011;8614;48.522;9.206;2022-09-13T14:24:43;6.00;;;5.60;;
16994;SDS011;8614;48.522;9.206;2022-09-13T14:27:13;5.83;;;5.53;;
16994;SDS011;8614;48.522;9.206;2022-09-13T14:29:46;1.77;;;1.67;;
16994;SDS011;8614;48.522;9.206;2022-09-13T14:32:15;3.50;;;3.30;;
16994;SDS011;8614;48.522;9.206;2022-09-13T14:34:52;5.60;;;5.30;;
16994;SDS011;8614;48.522;9.206;2022-09-13T14:37:27;6.00;;;5.40;;
16994;SDS011;8614;48.522;9.206;2022-09-13T14:39:56;5.83;;;5.53;;
16994;SDS011;8614;48.522;9.206;2022-09-13T14:42:24;5.70;;;5.30;;
16994;SDS011;8614;48.522;9.206;2022-09-13T14:44:52;5.13;;;4.83;;
16994;SDS011;8614;48.522;9.206;2022-09-13T14:47:21;5.50;;;5.13;;
16994;SDS011;8614;48.522;9.206;2022-09-13T14:49:53;6.23;;;5.50;;
16994;SDS011;8614;48.522;9.206;2022-09-13T14:52:27;6.27;;;5.77;;
16994;SDS011;8614;48.522;9.206;2022-09-13T14:54:58;1.83;;;1.73;;
16994;SDS011;8614;48.522;9.206;2022-09-13T14:57:29;5.90;;;5.40;;
16994;SDS011;8614;48.522;9.206;2022-09-13T15:00:00;6.10;;;5.80;;
16994;SDS011;8614;48.522;9.206;2022-09-13T15:02:31;1.60;;;1.50;;
16994;SDS011;8614;48.522;9.206;2022-09-13T15:05:03;1.73;;;1.63;;
16994;SDS011;8614;48.522;9.206;2022-09-13T15:07:38;3.07;;;1.87;;
16994;SDS011;8614;48.522;9.206;2022-09-13T15:10:07;1.80;;;1.70;;
16994;SDS011;8614;48.522;9.206;2022-09-13T15:12:49;1.77;;;1.67;;
16994;SDS011;8614;48.522;9.206;2022-09-13T15:15:32;1.80;;;1.70;;
16994;SDS011;8614;48.522;9.206;2022-09-13T15:18:01;1.67;;;1.60;;
16994;SDS011;8614;48.522;9.206;2022-09-13T15:20:42;3.07;;;1.83;;
16994;SDS011;8614;48.522;9.206;2022-09-13T15:23:14;3.23;;;3.07;;
16994;SDS011;8614;48.522;9.206;2022-09-13T15:25:46;3.70;;;3.50;;
16994;SDS011;8614;48.522;9.206;2022-09-13T15:28:21;2.33;;;2.20;;
16994;SDS011;8614;48.522;9.206;2022-09-13T15:30:50;3.70;;;3.50;;
16994;SDS011;8614;48.522;9.206;2022-09-13T15:33:21;5.10;;;4.73;;
16994;SDS011;8614;48.522;9.206;2022-09-13T15:35:50;5.10;;;4.60;;
16994;SDS011;8614;48.522;9.206;2022-09-13T15:38:26;3.50;;;3.30;;
16994;SDS011;8614;48.522;9.206;2022-09-13T15:40:59;3.30;;;3.10;;
16994;SDS011;8614;48.522;9.206;2022-09-13T15:43:27;3.57;;;3.27;;
16994;SDS011;8614;48.522;9.206;2022-09-13T15:45:55;3.33;;;3.03;;
16994;SDS011;8614;48.522;9.206;2022-09-13T15:51:06;2.67;;;2.57;;
16994;SDS011;8614;48.522;9.206;2022-09-13T15:54:04;2.50;;;2.40;;
16994;SDS011;8614;48.522;9.206;2022-09-13T15:57:02;3.20;;;3.00;;
16994;SDS011;8614;48.522;9.206;2022-09-13T17:24:10;6.30;;;5.90;;
16994;SDS011;8614;48.522;9.206;2022-09-13T17:26:37;5.97;;;5.67;;